sensor_id;sensor_type;location;lat;lon;timestamp;pressure;altitude;pressure_sealevel;temperature;humidity
10732;BME280;5417;42.686;23.244;2023-02-20T00:02:13;94598.53;;;12.08;52.55
10732;BME280;5417;42.686;23.244;2023-02-20T00:04:40;94613.53;;;12.16;53.13
10732;BME280;5417;42.686;23.244;2023-02-20T00:07:09;94611.22;;;12.22;53.37
10732;BME280;5417;42.686;23.244;2023-02-20T00:09:35;94614.31;;;12.37;52.65
10732;BME280;5417;42.686;23.244;2023-02-20T00:12:03;94603.63;;;12.40;52.61
10732;BME280;5417;42.686;23.244;2023-02-20T00:14:30;94604.69;;;12.38;53.05
10732;BME280;5417;42.686;23.244;2023-02-20T00:16:57;94593.75;;;12.44;52.76
10732;BME280;5417;42.686;23.244;2023-02-20T00:19:24;94597.16;;;12.44;52.83
10732;BME280;5417;42.686;23.244;2023-02-20T00:21:51;94595.38;;;12.45;52.77
10732;BME280;5417;42.686;23.244;2023-02-20T00:24:20;94603.78;;;12.48;53.16
10732;BME280;5417;42.686;23.244;2023-02-20T00:26:47;94593.59;;;12.45;52.94
10732;BME280;5417;42.686;23.244;2023-02-20T00:29:16;94583.84;;;12.47;53.32
10732;BME280;5417;42.686;23.244;2023-02-20T00:31:43;94585.13;;;12.53;53.56
10732;BME280;5417;42.686;23.244;2023-02-20T00:34:15;94579.84;;;12.43;53.22
10732;BME280;5417;42.686;23.244;2023-02-20T00:36:42;94575.78;;;12.50;53.44
10732;BME280;5417;42.686;23.244;2023-02-20T00:39:09;94565.63;;;12.57;53.10
10732;BME280;5417;42.686;23.244;2023-02-20T00:41:37;94561.25;;;12.57;53.03
10732;BME280;5417;42.686;23.244;2023-02-20T00:44:04;94571.97;;;12.54;53.18
10732;BME280;5417;42.686;23.244;2023-02-20T00:46:31;94563.63;;;12.40;53.40
10732;BME280;5417;42.686;23.244;2023-02-20T00:48:58;94590.53;;;12.30;53.79
10732;BME280;5417;42.686;23.244;2023-02-20T00:51:26;94602.00;;;12.18;54.05
10732;BME280;5417;42.686;23.244;2023-02-20T00:53:53;94609.84;;;11.97;54.35
10732;BME280;5417;42.686;23.244;2023-02-20T00:56:20;94604.38;;;12.00;54.51
10732;BME280;5417;42.686;23.244;2023-02-20T00:58:51;94603.69;;;11.98;54.83
10732;BME280;5417;42.686;23.244;2023-02-20T01:01:18;94624.22;;;11.92;54.87
10732;BME280;5417;42.686;23.244;2023-02-20T01:03:45;94624.34;;;11.90;54.94
10732;BME280;5417;42.686;23.244;2023-02-20T01:06:12;94632.50;;;11.97;54.79
10732;BME280;5417;42.686;23.244;2023-02-20T01:08:39;94641.50;;;11.93;54.46
10732;BME280;5417;42.686;23.244;2023-02-20T01:11:06;94635.41;;;11.83;55.41
10732;BME280;5417;42.686;23.244;2023-02-20T01:13:33;94633.13;;;11.89;55.59
10732;BME280;5417;42.686;23.244;2023-02-20T01:16:01;94618.00;;;11.72;55.69
10732;BME280;5417;42.686;23.244;2023-02-20T01:18:28;94630.91;;;11.74;56.04
10732;BME280;5417;42.686;23.244;2023-02-20T01:20:54;94638.41;;;11.78;55.92
10732;BME280;5417;42.686;23.244;2023-02-20T01:23:21;94643.94;;;11.85;56.04
10732;BME280;5417;42.686;23.244;2023-02-20T01:25:48;94653.56;;;12.05;55.21
10732;BME280;5417;42.686;23.244;2023-02-20T01:28:16;94650.66;;;11.98;55.47
10732;BME280;5417;42.686;23.244;2023-02-20T01:30:44;94645.03;;;12.03;55.49
10732;BME280;5417;42.686;23.244;2023-02-20T01:33:13;94647.94;;;11.89;55.87
10732;BME280;5417;42.686;23.244;2023-02-20T01:35:40;94652.91;;;11.92;55.84
10732;BME280;5417;42.686;23.244;2023-02-20T01:38:06;94651.00;;;11.94;55.86
10732;BME280;5417;42.686;23.244;2023-02-20T01:40:34;94657.69;;;12.08;55.62
10732;BME280;5417;42.686;23.244;2023-02-20T01:43:01;94664.97;;;12.04;56.47
10732;BME280;5417;42.686;23.244;2023-02-20T01:45:34;94668.13;;;12.08;55.92
10732;BME280;5417;42.686;23.244;2023-02-20T01:48:02;94654.78;;;12.01;56.69
10732;BME280;5417;42.686;23.244;2023-02-20T01:50:34;94663.09;;;11.95;56.84
10732;BME280;5417;42.686;23.244;2023-02-20T01:53:05;94664.16;;;11.92;56.98
10732;BME280;5417;42.686;23.244;2023-02-20T01:55:39;94665.38;;;11.88;57.65
10732;BME280;5417;42.686;23.244;2023-02-20T01:58:10;94674.53;;;11.83;57.72
10732;BME280;5417;42.686;23.244;2023-02-20T02:00:38;94680.63;;;11.61;58.36
10732;BME280;5417;42.686;23.244;2023-02-20T02:03:07;94665.88;;;11.50;58.85
10732;BME280;5417;42.686;23.244;2023-02-20T02:05:39;94677.94;;;11.51;58.92
10732;BME280;5417;42.686;23.244;2023-02-20T02:08:08;94677.63;;;11.45;58.23
10732;BME280;5417;42.686;23.244;2023-02-20T02:10:42;94676.44;;;11.37;58.82
10732;BME280;5417;42.686;23.244;2023-02-20T02:13:12;94674.09;;;11.23;58.64
10732;BME280;5417;42.686;23.244;2023-02-20T02:15:39;94670.22;;;11.18;58.81
10732;BME280;5417;42.686;23.244;2023-02-20T02:18:29;94674.09;;;11.23;58.71
10732;BME280;5417;42.686;23.244;2023-02-20T02:21:24;94673.59;;;11.29;58.19
10732;BME280;5417;42.686;23.244;2023-02-20T02:27:20;94672.81;;;11.18;57.29
10732;BME280;5417;42.686;23.244;2023-02-20T02:36:21;94703.41;;;10.93;58.59
10732;BME280;5417;42.686;23.244;2023-02-20T02:38:58;94707.63;;;10.83;58.31
10732;BME280;5417;42.686;23.244;2023-02-20T02:41:36;94706.56;;;10.86;58.43
10732;BME280;5417;42.686;23.244;2023-02-20T02:44:10;94708.47;;;10.84;58.93
10732;BME280;5417;42.686;23.244;2023-02-20T02:46:43;94707.28;;;10.88;58.93
10732;BME280;5417;42.686;23.244;2023-02-20T02:49:18;94715.69;;;10.91;58.47
10732;BME280;5417;42.686;23.244;2023-02-20T02:51:50;94702.91;;;10.88;58.24
10732;BME280;5417;42.686;23.244;2023-02-20T02:54:22;94711.69;;;10.98;58.32
10732;BME280;5417;42.686;23.244;2023-02-20T02:56:53;94707.53;;;10.96;58.21
10732;BME280;5417;42.686;23.244;2023-02-20T02:59:23;94707.88;;;10.91;58.67
10732;BME280;5417;42.686;23.244;2023-02-20T03:01:54;94710.72;;;10.99;58.30
10732;BME280;5417;42.686;23.244;2023-02-20T03:04:24;94712.75;;;10.96;58.04
10732;BME280;5417;42.686;23.244;2023-02-20T03:06:58;94716.88;;;10.87;58.14
10732;BME280;5417;42.686;23.244;2023-02-20T03:09:29;94716.16;;;10.85;58.26
10732;BME280;5417;42.686;23.244;2023-02-20T03:11:57;94713.56;;;10.85;58.08
10732;BME280;5417;42.686;23.244;2023-02-20T03:14:31;94714.63;;;10.83;57.75
10732;BME280;5417;42.686;23.244;2023-02-20T03:17:23;94718.16;;;10.82;57.57
10732;BME280;5417;42.686;23.244;2023-02-20T03:19:57;94733.56;;;10.85;57.66
10732;BME280;5417;42.686;23.244;2023-02-20T03:22:31;94735.44;;;10.83;57.65
10732;BME280;5417;42.686;23.244;2023-02-20T03:25:03;94728.59;;;10.82;57.58
10732;BME280;5417;42.686;23.244;2023-02-20T03:27:34;94732.84;;;10.71;57.63
10732;BME280;5417;42.686;23.244;2023-02-20T03:30:07;94728.94;;;10.66;58.01
10732;BME280;5417;42.686;23.244;2023-02-20T03:32:37;94745.16;;;10.69;58.05
10732;BME280;5417;42.686;23.244;2023-02-20T03:35:25;94739.94;;;10.69;57.71
10732;BME280;5417;42.686;23.244;2023-02-20T03:38:12;94731.44;;;10.67;57.34
10732;BME280;5417;42.686;23.244;2023-02-20T03:41:00;94741.97;;;10.77;57.29
10732;BME280;5417;42.686;23.244;2023-02-20T03:43:48;94742.44;;;10.71;57.36
10732;BME280;5417;42.686;23.244;2023-02-20T03:46:19;94746.56;;;10.62;57.12
10732;BME280;5417;42.686;23.244;2023-02-20T03:48:50;94751.75;;;10.51;57.83
10732;BME280;5417;42.686;23.244;2023-02-20T03:51:19;94746.06;;;10.46;58.03
10732;BME280;5417;42.686;23.244;2023-02-20T03:54:06;94743.59;;;10.45;58.19
10732;BME280;5417;42.686;23.244;2023-02-20T03:56:36;94754.78;;;10.34;57.61
10732;BME280;5417;42.686;23.244;2023-02-20T03:59:10;94763.63;;;10.20;58.37
10732;BME280;5417;42.686;23.244;2023-02-20T04:01:38;94770.25;;;10.24;57.87
10732;BME280;5417;42.686;23.244;2023-02-20T04:04:12;94783.50;;;10.32;57.79
10732;BME280;5417;42.686;23.244;2023-02-20T04:06:40;94775.94;;;10.29;58.04
10732;BME280;5417;42.686;23.244;2023-02-20T04:09:13;94798.47;;;10.41;57.88
10732;BME280;5417;42.686;23.244;2023-02-20T04:11:46;94785.34;;;10.43;57.81
10732;BME280;5417;42.686;23.244;2023-02-20T04:14:17;94792.34;;;10.54;57.28
10732;BME280;5417;42.686;23.244;2023-02-20T04:16:49;94780.41;;;10.62;57.00
10732;BME280;5417;42.686;23.244;2023-02-20T04:19:18;94784.78;;;10.62;56.58
10732;BME280;5417;42.686;23.244;2023-02-20T04:21:48;94773.66;;;10.49;56.96
10732;BME280;5417;42.686;23.244;2023-02-20T04:24:21;94770.03;;;10.38;57.66
10732;BME280;5417;42.686;23.244;2023-02-20T04:26:49;94782.94;;;10.40;58.01
10732;BME280;5417;42.686;23.244;2023-02-20T04:29:17;94788.25;;;10.38;57.90
10732;BME280;5417;42.686;23.244;2023-02-20T04:31:44;94793.56;;;10.37;58.01
10732;BME280;5417;42.686;23.244;2023-02-20T04:34:11;94791.19;;;10.34;57.95
10732;BME280;5417;42.686;23.244;2023-02-20T04:36:38;94807.69;;;10.46;57.04
10732;BME280;5417;42.686;23.244;2023-02-20T04:39:05;94806.56;;;10.26;57.79
10732;BME280;5417;42.686;23.244;2023-02-20T04:41:34;94808.09;;;10.28;56.70
10732;BME280;5417;42.686;23.244;2023-02-20T04:44:01;94793.47;;;10.15;56.89
10732;BME280;5417;42.686;23.244;2023-02-20T04:46:45;94804.66;;;10.04;56.94
10732;BME280;5417;42.686;23.244;2023-02-20T04:49:12;94790.13;;;10.01;56.83
10732;BME280;5417;42.686;23.244;2023-02-20T04:51:39;94800.97;;;9.95;57.12
10732;BME280;5417;42.686;23.244;2023-02-20T04:54:05;94786.91;;;9.98;57.17
10732;BME280;5417;42.686;23.244;2023-02-20T04:56:34;94790.03;;;10.14;55.91
10732;BME280;5417;42.686;23.244;2023-02-20T04:59:01;94793.88;;;9.97;55.21
10732;BME280;5417;42.686;23.244;2023-02-20T05:01:28;94804.63;;;9.93;56.29
10732;BME280;5417;42.686;23.244;2023-02-20T05:03:55;94805.59;;;9.79;56.33
10732;BME280;5417;42.686;23.244;2023-02-20T05:06:22;94805.81;;;9.76;55.17
10732;BME280;5417;42.686;23.244;2023-02-20T05:08:49;94825.09;;;9.61;55.83
10732;BME280;5417;42.686;23.244;2023-02-20T05:11:16;94812.06;;;9.73;55.20
10732;BME280;5417;42.686;23.244;2023-02-20T05:13:44;94811.34;;;9.71;54.81
10732;BME280;5417;42.686;23.244;2023-02-20T05:16:11;94821.50;;;9.74;54.40
10732;BME280;5417;42.686;23.244;2023-02-20T05:18:39;94832.97;;;9.72;54.79
10732;BME280;5417;42.686;23.244;2023-02-20T05:21:06;94827.88;;;9.70;54.71
10732;BME280;5417;42.686;23.244;2023-02-20T05:23:50;94833.00;;;9.59;54.43
10732;BME280;5417;42.686;23.244;2023-02-20T05:26:18;94825.34;;;9.45;55.26
10732;BME280;5417;42.686;23.244;2023-02-20T05:28:47;94840.72;;;9.48;55.34
10732;BME280;5417;42.686;23.244;2023-02-20T05:31:14;94844.06;;;9.50;55.64
10732;BME280;5417;42.686;23.244;2023-02-20T05:33:41;94858.50;;;9.54;55.53
10732;BME280;5417;42.686;23.244;2023-02-20T05:36:08;94863.31;;;9.71;55.31
10732;BME280;5417;42.686;23.244;2023-02-20T05:38:36;94864.50;;;10.28;55.55
10732;BME280;5417;42.686;23.244;2023-02-20T05:41:03;94855.03;;;10.97;53.19
10732;BME280;5417;42.686;23.244;2023-02-20T05:43:30;94867.16;;;11.76;51.71
10732;BME280;5417;42.686;23.244;2023-02-20T05:45:58;94854.72;;;12.66;49.42
10732;BME280;5417;42.686;23.244;2023-02-20T05:48:25;94843.53;;;13.47;46.91
10732;BME280;5417;42.686;23.244;2023-02-20T05:50:52;94854.78;;;14.18;45.12
10732;BME280;5417;42.686;23.244;2023-02-20T05:53:19;94858.16;;;14.49;44.50
10732;BME280;5417;42.686;23.244;2023-02-20T05:55:48;94842.97;;;14.82;43.93
10732;BME280;5417;42.686;23.244;2023-02-20T05:58:15;94838.13;;;15.53;41.79
10732;BME280;5417;42.686;23.244;2023-02-20T06:00:42;94842.03;;;16.14;40.98
10732;BME280;5417;42.686;23.244;2023-02-20T06:03:10;94842.34;;;16.64;39.48
10732;BME280;5417;42.686;23.244;2023-02-20T06:05:39;94844.53;;;16.05;38.68
10732;BME280;5417;42.686;23.244;2023-02-20T06:08:07;94846.63;;;16.02;38.88
10732;BME280;5417;42.686;23.244;2023-02-20T06:10:34;94847.75;;;15.06;39.94
10732;BME280;5417;42.686;23.244;2023-02-20T06:13:01;94860.66;;;14.61;41.47
10732;BME280;5417;42.686;23.244;2023-02-20T06:15:28;94869.03;;;14.55;42.00
10732;BME280;5417;42.686;23.244;2023-02-20T06:17:55;94875.25;;;14.04;42.35
10732;BME280;5417;42.686;23.244;2023-02-20T06:20:23;94876.31;;;13.92;43.25
10732;BME280;5417;42.686;23.244;2023-02-20T06:22:50;94874.88;;;14.08;43.92
10732;BME280;5417;42.686;23.244;2023-02-20T06:25:17;94875.19;;;14.25;41.57
10732;BME280;5417;42.686;23.244;2023-02-20T06:27:44;94864.31;;;14.39;41.72
10732;BME280;5417;42.686;23.244;2023-02-20T06:30:11;94871.38;;;14.48;41.50
10732;BME280;5417;42.686;23.244;2023-02-20T06:32:38;94879.22;;;14.48;40.93
10732;BME280;5417;42.686;23.244;2023-02-20T06:35:06;94874.34;;;14.24;41.26
10732;BME280;5417;42.686;23.244;2023-02-20T06:37:35;94887.19;;;14.37;41.00
10732;BME280;5417;42.686;23.244;2023-02-20T06:40:03;94885.63;;;14.65;41.30
10732;BME280;5417;42.686;23.244;2023-02-20T06:42:30;94895.41;;;14.13;40.65
10732;BME280;5417;42.686;23.244;2023-02-20T06:44:57;94905.75;;;14.14;40.80
10732;BME280;5417;42.686;23.244;2023-02-20T06:47:23;94909.25;;;13.94;41.84
10732;BME280;5417;42.686;23.244;2023-02-20T06:49:50;94901.44;;;13.43;42.38
10732;BME280;5417;42.686;23.244;2023-02-20T06:52:17;94901.94;;;12.95;43.74
10732;BME280;5417;42.686;23.244;2023-02-20T06:54:45;94903.94;;;13.03;44.42
10732;BME280;5417;42.686;23.244;2023-02-20T06:57:12;94902.47;;;13.10;43.89
10732;BME280;5417;42.686;23.244;2023-02-20T06:59:43;94902.88;;;13.26;43.78
10732;BME280;5417;42.686;23.244;2023-02-20T07:02:12;94902.34;;;13.32;43.76
10732;BME280;5417;42.686;23.244;2023-02-20T07:04:40;94900.22;;;13.47;41.83
10732;BME280;5417;42.686;23.244;2023-02-20T07:07:07;94911.66;;;14.07;41.02
10732;BME280;5417;42.686;23.244;2023-02-20T07:09:34;94908.53;;;13.82;41.04
10732;BME280;5417;42.686;23.244;2023-02-20T07:12:04;94918.72;;;14.16;40.38
10732;BME280;5417;42.686;23.244;2023-02-20T07:14:31;94912.84;;;14.03;39.44
10732;BME280;5417;42.686;23.244;2023-02-20T07:16:59;94918.16;;;14.22;40.05
10732;BME280;5417;42.686;23.244;2023-02-20T07:19:26;94922.38;;;14.44;39.11
10732;BME280;5417;42.686;23.244;2023-02-20T07:21:53;94915.81;;;14.69;40.90
10732;BME280;5417;42.686;23.244;2023-02-20T07:24:20;94911.91;;;14.53;38.29
10732;BME280;5417;42.686;23.244;2023-02-20T07:26:47;94902.13;;;14.56;39.32
10732;BME280;5417;42.686;23.244;2023-02-20T07:29:18;94921.22;;;14.37;39.46
10732;BME280;5417;42.686;23.244;2023-02-20T07:31:46;94933.63;;;14.25;38.77
10732;BME280;5417;42.686;23.244;2023-02-20T07:34:13;94926.00;;;13.51;39.46
10732;BME280;5417;42.686;23.244;2023-02-20T07:36:40;94936.91;;;13.56;40.52
10732;BME280;5417;42.686;23.244;2023-02-20T07:39:07;94936.47;;;13.31;40.52
10732;BME280;5417;42.686;23.244;2023-02-20T07:41:34;94923.72;;;13.37;41.45
10732;BME280;5417;42.686;23.244;2023-02-20T07:44:01;94931.94;;;13.84;38.74
10732;BME280;5417;42.686;23.244;2023-02-20T07:46:30;94923.00;;;13.86;39.90
10732;BME280;5417;42.686;23.244;2023-02-20T07:49:01;94931.25;;;13.82;38.48
10732;BME280;5417;42.686;23.244;2023-02-20T07:51:28;94926.28;;;13.79;38.38
10732;BME280;5417;42.686;23.244;2023-02-20T07:53:56;94940.94;;;13.40;39.45
10732;BME280;5417;42.686;23.244;2023-02-20T07:56:23;94936.69;;;13.69;38.98
10732;BME280;5417;42.686;23.244;2023-02-20T07:58:50;94938.91;;;14.04;39.09
10732;BME280;5417;42.686;23.244;2023-02-20T08:01:17;94935.81;;;14.30;37.84
10732;BME280;5417;42.686;23.244;2023-02-20T08:03:46;94945.06;;;13.94;38.16
10732;BME280;5417;42.686;23.244;2023-02-20T08:06:16;94957.63;;;14.00;38.37
10732;BME280;5417;42.686;23.244;2023-02-20T08:08:46;94945.06;;;14.34;39.01
10732;BME280;5417;42.686;23.244;2023-02-20T08:11:14;94939.75;;;14.45;36.79
10732;BME280;5417;42.686;23.244;2023-02-20T08:13:41;94966.84;;;14.34;37.80
10732;BME280;5417;42.686;23.244;2023-02-20T08:16:09;94956.84;;;14.09;38.50
10732;BME280;5417;42.686;23.244;2023-02-20T08:18:37;94975.13;;;13.69;38.48
10732;BME280;5417;42.686;23.244;2023-02-20T08:21:06;94950.34;;;13.73;38.50
10732;BME280;5417;42.686;23.244;2023-02-20T08:23:33;94951.63;;;14.09;37.93
10732;BME280;5417;42.686;23.244;2023-02-20T08:26:02;94967.44;;;13.77;37.97
10732;BME280;5417;42.686;23.244;2023-02-20T08:28:29;94970.66;;;13.60;38.84
10732;BME280;5417;42.686;23.244;2023-02-20T08:30:56;94964.25;;;13.52;38.59
10732;BME280;5417;42.686;23.244;2023-02-20T08:33:23;94965.13;;;13.53;39.50
10732;BME280;5417;42.686;23.244;2023-02-20T08:35:50;94952.13;;;13.72;38.91
10732;BME280;5417;42.686;23.244;2023-02-20T08:38:25;94969.09;;;13.78;38.25
10732;BME280;5417;42.686;23.244;2023-02-20T08:40:53;94930.47;;;14.01;38.66
10732;BME280;5417;42.686;23.244;2023-02-20T08:43:20;94960.09;;;14.32;37.38
10732;BME280;5417;42.686;23.244;2023-02-20T08:45:47;94937.91;;;13.96;38.36
10732;BME280;5417;42.686;23.244;2023-02-20T08:48:14;94942.56;;;13.92;37.86
10732;BME280;5417;42.686;23.244;2023-02-20T08:50:41;94947.25;;;13.88;38.65
10732;BME280;5417;42.686;23.244;2023-02-20T08:53:08;94942.91;;;13.68;38.11
10732;BME280;5417;42.686;23.244;2023-02-20T08:55:36;94912.09;;;13.09;39.24
10732;BME280;5417;42.686;23.244;2023-02-20T08:58:03;94909.59;;;13.49;38.92
10732;BME280;5417;42.686;23.244;2023-02-20T09:00:30;94907.72;;;13.92;37.84
10732;BME280;5417;42.686;23.244;2023-02-20T09:02:57;94905.53;;;13.56;38.52
10732;BME280;5417;42.686;23.244;2023-02-20T09:05:24;94909.94;;;13.56;39.38
10732;BME280;5417;42.686;23.244;2023-02-20T09:07:52;94913.63;;;13.84;38.32
10732;BME280;5417;42.686;23.244;2023-02-20T09:10:20;94907.84;;;13.80;38.22
10732;BME280;5417;42.686;23.244;2023-02-20T09:12:48;94920.56;;;13.95;37.22
10732;BME280;5417;42.686;23.244;2023-02-20T09:15:16;94894.13;;;13.98;37.50
10732;BME280;5417;42.686;23.244;2023-02-20T09:17:44;94911.03;;;14.34;37.69
10732;BME280;5417;42.686;23.244;2023-02-20T09:20:11;94917.91;;;14.25;37.07
10732;BME280;5417;42.686;23.244;2023-02-20T09:22:40;94906.19;;;13.79;38.38
10732;BME280;5417;42.686;23.244;2023-02-20T09:25:09;94921.50;;;14.24;40.93
10732;BME280;5417;42.686;23.244;2023-02-20T09:27:37;94911.09;;;14.53;40.71
10732;BME280;5417;42.686;23.244;2023-02-20T09:30:07;94906.00;;;14.90;39.17
10732;BME280;5417;42.686;23.244;2023-02-20T09:32:41;94922.44;;;15.21;39.56
10732;BME280;5417;42.686;23.244;2023-02-20T09:35:09;94915.59;;;15.47;38.91
10732;BME280;5417;42.686;23.244;2023-02-20T09:37:49;94902.69;;;15.27;36.48
10732;BME280;5417;42.686;23.244;2023-02-20T09:40:20;94901.75;;;14.70;37.07
10732;BME280;5417;42.686;23.244;2023-02-20T09:42:58;94897.50;;;14.29;38.51
10732;BME280;5417;42.686;23.244;2023-02-20T09:45:31;94888.78;;;14.09;38.91
10732;BME280;5417;42.686;23.244;2023-02-20T09:48:11;94891.09;;;14.42;38.79
10732;BME280;5417;42.686;23.244;2023-02-20T09:50:44;94872.34;;;14.57;36.83
10732;BME280;5417;42.686;23.244;2023-02-20T09:53:18;94842.16;;;14.43;37.98
10732;BME280;5417;42.686;23.244;2023-02-20T09:55:48;94903.81;;;14.76;38.91
10732;BME280;5417;42.686;23.244;2023-02-20T09:58:22;94893.44;;;15.03;35.66
10732;BME280;5417;42.686;23.244;2023-02-20T10:00:57;94902.53;;;15.28;36.27
10732;BME280;5417;42.686;23.244;2023-02-20T10:03:30;94904.84;;;15.41;35.44
10732;BME280;5417;42.686;23.244;2023-02-20T10:06:00;94895.75;;;15.35;34.51
10732;BME280;5417;42.686;23.244;2023-02-20T10:08:30;94902.47;;;15.57;34.51
10732;BME280;5417;42.686;23.244;2023-02-20T10:11:00;94901.13;;;15.63;35.60
10732;BME280;5417;42.686;23.244;2023-02-20T10:13:39;94881.63;;;15.65;34.73
10732;BME280;5417;42.686;23.244;2023-02-20T10:16:20;94905.84;;;15.87;33.70
10732;BME280;5417;42.686;23.244;2023-02-20T10:19:00;94888.53;;;15.47;32.44
10732;BME280;5417;42.686;23.244;2023-02-20T10:21:44;94910.81;;;15.33;33.27
10732;BME280;5417;42.686;23.244;2023-02-20T10:24:24;94890.34;;;15.46;31.89
10732;BME280;5417;42.686;23.244;2023-02-20T10:27:00;94892.09;;;15.56;32.86
10732;BME280;5417;42.686;23.244;2023-02-20T10:29:31;94895.72;;;15.64;31.95
10732;BME280;5417;42.686;23.244;2023-02-20T10:32:04;94889.78;;;15.43;33.49
10732;BME280;5417;42.686;23.244;2023-02-20T10:34:35;94886.03;;;15.55;32.90
10732;BME280;5417;42.686;23.244;2023-02-20T10:37:09;94879.81;;;15.56;32.16
10732;BME280;5417;42.686;23.244;2023-02-20T10:39:40;94881.94;;;15.62;32.24
10732;BME280;5417;42.686;23.244;2023-02-20T10:42:13;94871.19;;;15.36;32.84
10732;BME280;5417;42.686;23.244;2023-02-20T10:44:46;94869.31;;;15.09;33.52
10732;BME280;5417;42.686;23.244;2023-02-20T10:47:21;94858.25;;;15.06;33.30
10732;BME280;5417;42.686;23.244;2023-02-20T10:49:56;94858.31;;;14.67;34.28
10732;BME280;5417;42.686;23.244;2023-02-20T10:52:28;94854.69;;;14.97;34.06
10732;BME280;5417;42.686;23.244;2023-02-20T10:55:03;94864.16;;;15.27;33.22
10732;BME280;5417;42.686;23.244;2023-02-20T10:57:37;94848.75;;;15.05;34.51
10732;BME280;5417;42.686;23.244;2023-02-20T11:00:10;94859.91;;;15.26;33.68
10732;BME280;5417;42.686;23.244;2023-02-20T11:02:44;94870.78;;;15.31;33.49
10732;BME280;5417;42.686;23.244;2023-02-20T11:05:17;94862.25;;;15.20;34.36
10732;BME280;5417;42.686;23.244;2023-02-20T11:07:47;94857.88;;;14.91;34.36
10732;BME280;5417;42.686;23.244;2023-02-20T11:10:15;94864.19;;;15.18;35.32
10732;BME280;5417;42.686;23.244;2023-02-20T11:12:44;94854.53;;;15.18;33.83
10732;BME280;5417;42.686;23.244;2023-02-20T11:15:16;94834.59;;;15.35;34.02
10732;BME280;5417;42.686;23.244;2023-02-20T11:17:48;94866.38;;;15.32;33.47
10732;BME280;5417;42.686;23.244;2023-02-20T11:20:39;94863.13;;;14.72;34.52
10732;BME280;5417;42.686;23.244;2023-02-20T11:23:07;94854.41;;;14.52;35.25
10732;BME280;5417;42.686;23.244;2023-02-20T11:25:35;94864.31;;;14.39;35.19
10732;BME280;5417;42.686;23.244;2023-02-20T11:28:10;94879.53;;;14.74;35.66
10732;BME280;5417;42.686;23.244;2023-02-20T11:30:43;94883.25;;;15.00;35.36
10732;BME280;5417;42.686;23.244;2023-02-20T11:33:16;94886.78;;;15.38;34.61
10732;BME280;5417;42.686;23.244;2023-02-20T11:35:45;94877.59;;;15.14;34.46
10732;BME280;5417;42.686;23.244;2023-02-20T11:38:34;94887.09;;;15.15;33.51
10732;BME280;5417;42.686;23.244;2023-02-20T11:41:05;94865.00;;;15.08;34.43
10732;BME280;5417;42.686;23.244;2023-02-20T11:43:34;94852.03;;;15.26;33.93
10732;BME280;5417;42.686;23.244;2023-02-20T11:46:12;94877.84;;;15.21;33.81
10732;BME280;5417;42.686;23.244;2023-02-20T11:48:58;94866.97;;;15.16;34.10
10732;BME280;5417;42.686;23.244;2023-02-20T11:51:31;94857.81;;;15.30;34.15
10732;BME280;5417;42.686;23.244;2023-02-20T11:54:06;94863.88;;;15.30;34.03
10732;BME280;5417;42.686;23.244;2023-02-20T11:56:33;94842.88;;;15.40;33.87
10732;BME280;5417;42.686;23.244;2023-02-20T11:59:25;94819.22;;;15.50;33.67
10732;BME280;5417;42.686;23.244;2023-02-20T12:01:53;94840.44;;;15.75;33.49
10732;BME280;5417;42.686;23.244;2023-02-20T12:04:22;94833.16;;;15.50;32.87
10732;BME280;5417;42.686;23.244;2023-02-20T12:06:51;94837.25;;;15.25;33.33
10732;BME280;5417;42.686;23.244;2023-02-20T12:09:23;94814.22;;;15.19;32.74
10732;BME280;5417;42.686;23.244;2023-02-20T12:11:53;94808.03;;;15.10;33.25
10732;BME280;5417;42.686;23.244;2023-02-20T12:14:21;94806.78;;;15.05;33.94
10732;BME280;5417;42.686;23.244;2023-02-20T12:17:00;94823.50;;;14.94;33.43
10732;BME280;5417;42.686;23.244;2023-02-20T12:19:43;94832.31;;;15.22;34.23
10732;BME280;5417;42.686;23.244;2023-02-20T12:22:18;94829.56;;;15.14;34.19
10732;BME280;5417;42.686;23.244;2023-02-20T12:24:59;94819.69;;;14.79;34.42
10732;BME280;5417;42.686;23.244;2023-02-20T12:27:56;94843.28;;;14.69;33.83
10732;BME280;5417;42.686;23.244;2023-02-20T12:30:43;94836.94;;;14.72;34.81
10732;BME280;5417;42.686;23.244;2023-02-20T12:36:10;94833.03;;;14.86;34.52
10732;BME280;5417;42.686;23.244;2023-02-20T12:38:47;94820.59;;;14.97;34.81
10732;BME280;5417;42.686;23.244;2023-02-20T12:41:26;94834.13;;;15.02;33.97
10732;BME280;5417;42.686;23.244;2023-02-20T12:44:11;94835.63;;;15.14;34.17
10732;BME280;5417;42.686;23.244;2023-02-20T12:46:49;94829.06;;;14.81;34.07
10732;BME280;5417;42.686;23.244;2023-02-20T12:49:32;94833.44;;;14.91;34.64
10732;BME280;5417;42.686;23.244;2023-02-20T12:52:23;94833.19;;;14.84;34.06
10732;BME280;5417;42.686;23.244;2023-02-20T12:55:00;94847.50;;;14.41;34.80
10732;BME280;5417;42.686;23.244;2023-02-20T12:57:39;94842.16;;;14.43;34.71
10732;BME280;5417;42.686;23.244;2023-02-20T13:00:20;94850.28;;;14.49;34.79
10732;BME280;5417;42.686;23.244;2023-02-20T13:02:50;94843.34;;;14.39;34.88
10732;BME280;5417;42.686;23.244;2023-02-20T13:05:22;94850.16;;;14.51;34.81
10732;BME280;5417;42.686;23.244;2023-02-20T13:07:55;94853.75;;;14.60;35.61
10732;BME280;5417;42.686;23.244;2023-02-20T13:10:24;94849.19;;;14.81;35.63
10732;BME280;5417;42.686;23.244;2023-02-20T13:12:53;94841.03;;;15.13;40.00
10732;BME280;5417;42.686;23.244;2023-02-20T13:15:30;94829.91;;;15.38;42.23
10732;BME280;5417;42.686;23.244;2023-02-20T13:18:03;94834.66;;;15.53;36.95
10732;BME280;5417;42.686;23.244;2023-02-20T13:20:38;94838.16;;;15.43;35.01
10732;BME280;5417;42.686;23.244;2023-02-20T13:23:27;94830.38;;;15.24;35.97
10732;BME280;5417;42.686;23.244;2023-02-20T13:25:55;94840.59;;;14.98;35.28
10732;BME280;5417;42.686;23.244;2023-02-20T13:28:40;94859.78;;;14.99;36.65
10732;BME280;5417;42.686;23.244;2023-02-20T13:31:22;94854.59;;;14.60;36.78
10732;BME280;5417;42.686;23.244;2023-02-20T13:33:51;94855.25;;;14.43;36.23